Time;durP1;ratioP1;P1;durP2;ratioP2;P2;SDS_P1;SDS_P2;PMS_P1;PMS_P2;Temp;Humidity;BMP_temperature;BMP_pressure;BME280_temperature;BME280_humidity;BME280_pressure;Samples;Min_cycle;Max_cycle;Signal;HPM_P1;HPM_P2
2021/08/21 00:02:52;;;;;;;6.07;5.53;;;;;;;16.34;71.68;101787.28;6003671;29;20300;-51
2021/08/21 00:06:14;;;;;;;5.37;4.93;;;;;;;16.40;71.33;101789.84;5998416;29;20620;-53
2021/08/21 00:09:36;;;;;;;6.37;5.63;;;;;;;16.06;72.45;101790.38;5998866;29;20242;-53
2021/08/21 00:12:58;;;;;;;5.97;5.37;;;;;;;16.19;72.45;101790.16;5997035;29;20333;-50
2021/08/21 00:16:18;;;;;;;5.47;4.83;;;;;;;16.13;72.24;101799.91;6000028;29;20289;-55
2021/08/21 00:19:39;;;;;;;6.43;5.83;;;;;;;16.10;72.23;101797.31;5997156;29;20238;-54
2021/08/21 00:23:01;;;;;;;6.23;5.63;;;;;;;16.19;72.21;101798.06;5992900;29;20246;-55
2021/08/21 00:26:22;;;;;;;6.00;5.60;;;;;;;16.09;72.46;101794.72;5995760;29;20361;-54
2021/08/21 00:29:43;;;;;;;6.57;5.97;;;;;;;16.18;72.14;101793.72;5994227;29;20821;-55
2021/08/21 00:33:04;;;;;;;6.30;5.70;;;;;;;16.13;72.17;101796.44;5996318;29;20249;-54
2021/08/21 00:36:26;;;;;;;6.90;6.23;;;;;;;16.06;72.12;101800.91;6001835;29;20541;-52
2021/08/21 00:39:49;;;;;;;6.33;5.73;;;;;;;16.00;72.18;101805.41;6002240;29;20245;-52
2021/08/21 00:43:10;;;;;;;6.57;6.00;;;;;;;15.96;72.33;101806.34;5993865;29;20518;-53
2021/08/21 00:46:31;;;;;;;6.70;6.00;;;;;;;16.05;72.12;101803.53;5994435;29;20692;-52
2021/08/21 00:49:54;;;;;;;5.77;5.27;;;;;;;16.04;71.85;101801.81;5995989;29;20487;-52
2021/08/21 00:53:15;;;;;;;5.73;5.23;;;;;;;15.94;72.52;101801.97;5996932;29;20548;-55
2021/08/21 00:56:37;;;;;;;6.97;6.13;;;;;;;16.06;71.72;101806.16;6019914;29;21237;-54
2021/08/21 00:59:59;;;;;;;6.63;6.03;;;;;;;16.00;72.06;101800.16;6002653;29;20260;-53
2021/08/21 01:03:20;;;;;;;6.87;6.17;;;;;;;15.86;72.44;101803.00;6001308;29;20237;-53
2021/08/21 01:06:41;;;;;;;6.87;6.17;;;;;;;15.84;72.24;101810.88;5999150;29;20242;-55
2021/08/21 01:10:04;;;;;;;7.00;6.30;;;;;;;15.64;73.04;101807.66;6012539;29;20237;-53
2021/08/21 01:13:28;;;;;;;7.70;7.00;;;;;;;15.68;72.70;101804.97;6013033;29;20529;-53
2021/08/21 01:16:49;;;;;;;6.17;5.67;;;;;;;15.70;72.63;101802.28;5999613;29;20246;-55
2021/08/21 01:20:11;;;;;;;7.03;6.43;;;;;;;15.65;72.70;101797.13;5987615;29;20584;-54
2021/08/21 01:23:37;;;;;;;7.27;6.67;;;;;;;15.68;72.56;101801.44;6007067;29;20471;-55
2021/08/21 01:27:01;;;;;;;6.67;6.17;;;;;;;15.75;72.42;101800.50;6000049;29;20258;-56
2021/08/21 01:30:28;;;;;;;8.00;6.90;;;;;;;15.72;72.05;101790.00;6004547;29;20253;-52
2021/08/21 01:33:51;;;;;;;7.07;6.37;;;;;;;15.61;72.74;101791.97;5997668;29;20247;-54
2021/08/21 01:37:12;;;;;;;6.77;6.27;;;;;;;15.57;72.56;101791.13;6011534;29;20329;-53
2021/08/21 01:40:45;;;;;;;10.13;6.33;;;;;;;15.78;71.88;101786.47;5996819;29;20231;-53
2021/08/21 01:44:12;;;;;;;7.07;6.37;;;;;;;15.77;71.46;101788.22;6000157;29;20579;-55
2021/08/21 01:47:33;;;;;;;6.20;5.60;;;;;;;15.75;71.58;101790.00;5998413;29;20231;-53
2021/08/21 01:50:54;;;;;;;8.07;6.00;;;;;;;15.66;71.65;101801.47;5979735;29;21375;-49
2021/08/21 01:54:17;;;;;;;6.50;5.60;;;;;;;15.67;71.50;101794.47;5996459;29;20246;-55
2021/08/21 01:57:40;;;;;;;6.27;5.67;;;;;;;15.52;72.24;101787.69;5999513;29;20645;-52
2021/08/21 02:01:19;;;;;;;7.43;6.73;;;;;;;15.53;71.98;101797.31;6008425;29;20242;-54
2021/08/21 02:05:12;;;;;;;6.13;5.60;;;;;;;15.35;72.31;101787.91;5991337;29;20364;-54
2021/08/21 02:08:33;;;;;;;8.37;7.50;;;;;;;15.38;72.31;101789.66;6000087;29;20243;-55
2021/08/21 02:11:57;;;;;;;6.30;5.70;;;;;;;15.38;72.45;101800.16;6001130;29;20844;-55
2021/08/21 02:15:18;;;;;;;6.23;5.73;;;;;;;15.37;72.10;101788.75;6012841;29;20238;-53
2021/08/21 02:18:46;;;;;;;6.77;6.13;;;;;;;15.33;72.04;101792.31;5995641;29;21327;-49
2021/08/21 02:22:23;;;;;;;7.47;6.77;;;;;;;15.39;71.66;101786.97;5989491;29;20233;-55
2021/08/21 02:25:44;;;;;;;6.20;5.10;;;;;;;15.23;72.46;101790.72;5999524;29;20223;-50
2021/08/21 02:29:07;;;;;;;7.77;6.43;;;;;;;15.29;72.17;101785.38;6011220;29;20262;-54
2021/08/21 02:32:27;;;;;;;6.73;6.13;;;;;;;15.31;71.89;101786.22;6015167;29;20238;-50
2021/08/21 02:35:50;;;;;;;6.60;5.90;;;;;;;15.25;72.02;101786.31;6011377;29;23852;-51
2021/08/21 02:39:10;;;;;;;6.83;6.23;;;;;;;15.25;72.01;101783.69;6008123;29;21646;-55
2021/08/21 02:42:31;;;;;;;7.20;6.60;;;;;;;15.19;72.29;101773.28;6008628;29;20230;-54
2021/08/21 02:45:53;;;;;;;7.07;6.47;;;;;;;15.23;72.10;101785.47;6008968;29;20368;-51
2021/08/21 02:49:14;;;;;;;7.47;6.67;;;;;;;15.15;72.20;101775.91;6003391;29;20798;-53
2021/08/21 02:52:37;;;;;;;7.23;6.57;;;;;;;15.32;71.38;101780.97;6000212;29;20699;-51
2021/08/21 02:56:00;;;;;;;7.57;6.23;;;;;;;15.23;71.75;101788.09;6008200;29;20340;-51
2021/08/21 02:59:21;;;;;;;7.10;6.40;;;;;;;15.07;72.73;101783.03;6009314;29;20619;-51
2021/08/21 03:02:42;;;;;;;7.57;6.87;;;;;;;15.07;72.15;101785.66;6007119;29;20230;-53
2021/08/21 03:06:06;;;;;;;7.47;6.87;;;;;;;15.18;71.90;101787.25;6017013;29;20565;-53
2021/08/21 03:09:29;;;;;;;8.27;7.47;;;;;;;15.05;72.02;101784.81;6011176;29;20230;-52
2021/08/21 03:12:50;;;;;;;6.93;6.27;;;;;;;15.03;71.96;101789.22;6016726;29;20267;-55
2021/08/21 03:16:11;;;;;;;7.73;7.13;;;;;;;15.02;71.99;101797.09;6019298;29;20788;-54
2021/08/21 03:19:32;;;;;;;7.30;6.70;;;;;;;14.99;72.07;101799.75;6022584;29;20242;-53
2021/08/21 03:22:54;;;;;;;9.03;8.13;;;;;;;14.98;71.98;101811.13;6010792;29;20844;-52
2021/08/21 03:26:21;;;;;;;7.53;6.83;;;;;;;14.55;74.30;101815.03;6015787;29;20247;-51
2021/08/21 03:29:45;;;;;;;8.27;7.47;;;;;;;14.88;73.03;101820.84;6017226;29;20231;-50
2021/08/21 03:33:07;;;;;;;11.30;10.30;;;;;;;14.81;73.58;101827.03;6012180;29;20826;-55
2021/08/21 03:36:29;;;;;;;9.37;8.40;;;;;;;14.85;73.24;101831.38;6014725;29;20657;-51
2021/08/21 03:39:50;;;;;;;7.03;6.50;;;;;;;14.97;72.57;101823.38;6012538;29;20365;-55
2021/08/21 03:43:14;;;;;;;13.13;11.83;;;;;;;14.99;72.62;101828.63;6009310;29;20254;-54
2021/08/21 03:46:35;;;;;;;8.87;7.73;;;;;;;15.06;72.12;101822.38;6014380;29;20804;-55
2021/08/21 03:49:58;;;;;;;8.33;7.67;;;;;;;15.14;72.31;101829.31;6011251;29;20234;-51
2021/08/21 03:53:19;;;;;;;7.77;7.07;;;;;;;15.14;72.37;101829.31;6006752;29;20625;-52
2021/08/21 03:56:58;;;;;;;7.20;6.27;;;;;;;15.23;72.29;101832.69;6017012;29;20235;-52
2021/08/21 04:00:22;;;;;;;7.27;6.57;;;;;;;15.20;72.56;101830.09;6013148;29;20232;-51
2021/08/21 04:03:54;;;;;;;8.00;7.13;;;;;;;15.39;71.81;101834.22;6017397;29;20283;-53
2021/08/21 04:07:17;;;;;;;8.07;6.70;;;;;;;15.52;72.02;101837.56;6017642;29;20239;-52
2021/08/21 04:10:39;;;;;;;8.00;7.20;;;;;;;15.53;71.95;101844.56;6010709;29;20355;-56
2021/08/21 04:14:01;;;;;;;8.53;7.83;;;;;;;15.48;72.41;101841.97;6004752;29;20239;-55
2021/08/21 04:17:23;;;;;;;8.83;7.77;;;;;;;15.51;72.36;101841.97;6022657;29;20238;-53
2021/08/21 04:20:45;;;;;;;8.07;7.27;;;;;;;15.48;72.33;101844.59;6014936;29;20802;-51
2021/08/21 04:24:07;;;;;;;7.83;7.13;;;;;;;15.53;72.32;101842.81;6013338;29;20242;-53
2021/08/21 04:27:29;;;;;;;9.57;7.47;;;;;;;15.58;72.47;101834.00;6034084;29;20230;-54
2021/08/21 04:30:50;;;;;;;8.30;7.53;;;;;;;15.66;72.30;101837.38;6018541;29;20238;-53
2021/08/21 04:34:12;;;;;;;8.60;7.80;;;;;;;15.59;72.67;101830.50;6012851;29;20685;-54
2021/08/21 04:37:33;;;;;;;10.53;8.70;;;;;;;15.63;72.47;101829.56;6032674;29;20226;-54
2021/08/21 04:40:55;;;;;;;7.77;7.17;;;;;;;15.62;72.55;101833.91;6032995;29;20239;-54
2021/08/21 04:44:16;;;;;;;8.47;7.63;;;;;;;15.58;72.93;101831.38;6006068;29;20235;-53
2021/08/21 04:47:37;;;;;;;7.93;6.83;;;;;;;15.69;72.67;101832.09;6021445;29;20239;-54
2021/08/21 04:51:01;;;;;;;8.33;7.33;;;;;;;15.73;72.39;101834.66;6018797;29;20550;-50
2021/08/21 04:54:21;;;;;;;8.13;6.77;;;;;;;15.67;73.14;101836.50;6007336;29;20238;-53
2021/08/21 04:57:43;;;;;;;7.07;6.37;;;;;;;15.61;73.18;101836.59;6021648;29;20602;-56
2021/08/21 05:01:04;;;;;;;8.20;7.40;;;;;;;15.58;73.43;101839.25;6015888;29;20246;-54
2021/08/21 05:04:33;;;;;;;7.30;6.60;;;;;;;15.41;74.28;101847.34;6016160;29;21101;-52
2021/08/21 05:07:56;;;;;;;7.47;6.73;;;;;;;15.75;73.32;101847.78;6020361;29;20242;-54
2021/08/21 05:11:17;;;;;;;8.00;7.33;;;;;;;15.75;73.23;101861.78;6035738;29;20234;-53
2021/08/21 05:14:38;;;;;;;8.03;7.23;;;;;;;15.99;72.54;101862.31;6013229;29;20245;-53
2021/08/21 05:18:01;;;;;;;7.90;7.13;;;;;;;16.11;71.82;101863.88;6034087;29;20243;-49
2021/08/21 05:21:33;;;;;;;8.90;8.20;;;;;;;16.21;71.38;101860.22;6013877;29;20522;-52
2021/08/21 05:24:56;;;;;;;8.00;7.10;;;;;;;16.14;71.46;101861.22;6018914;29;20234;-53
2021/08/21 05:28:18;;;;;;;10.00;9.10;;;;;;;16.18;71.63;101859.41;6019129;29;20290;-53
2021/08/21 05:31:42;;;;;;;8.33;7.53;;;;;;;16.31;71.16;101856.56;6022466;29;20242;-53
2021/08/21 05:35:06;;;;;;;10.80;7.90;;;;;;;16.37;71.08;101867.88;6018318;29;20235;-52
2021/08/21 05:38:27;;;;;;;8.73;7.90;;;;;;;16.34;71.28;101872.28;6015587;29;20238;-55
2021/08/21 05:41:49;;;;;;;8.00;7.20;;;;;;;16.39;71.45;101874.84;6019077;29;20235;-51
2021/08/21 05:45:11;;;;;;;7.90;7.10;;;;;;;16.38;71.51;101874.84;6014654;29;20596;-53
2021/08/21 05:48:31;;;;;;;9.30;7.37;;;;;;;16.16;72.28;101876.97;6015700;29;20235;-54
2021/08/21 05:51:53;;;;;;;7.57;6.83;;;;;;;16.11;72.60;101866.50;6012654;29;20235;-53
2021/08/21 05:55:17;;;;;;;8.87;6.87;;;;;;;16.64;70.52;101877.06;6021417;29;20234;-52
2021/08/21 05:58:47;;;;;;;8.87;7.63;;;;;;;16.98;68.78;101876.47;6005645;29;20660;-56
2021/08/21 06:02:08;;;;;;;7.40;6.37;;;;;;;17.35;68.27;101874.00;6004501;29;20227;-55
2021/08/21 06:05:29;;;;;;;6.07;5.53;;;;;;;17.10;67.81;101874.47;5997495;29;20247;-52
2021/08/21 06:08:56;;;;;;;6.80;6.20;;;;;;;17.28;67.66;101877.63;6016999;29;20262;-55
2021/08/21 06:12:17;;;;;;;7.43;6.40;;;;;;;17.68;66.15;101866.25;6014400;29;20261;-52
2021/08/21 06:15:40;;;;;;;5.23;4.73;;;;;;;17.66;66.18;101871.56;6013137;29;20262;-54
2021/08/21 06:19:01;;;;;;;6.23;4.50;;;;;;;17.73;64.84;101877.56;6016567;29;20225;-51
2021/08/21 06:22:22;;;;;;;6.07;4.63;;;;;;;17.71;65.10;101868.81;6013036;29;20561;-51
2021/08/21 06:25:43;;;;;;;4.60;4.20;;;;;;;17.88;64.88;101877.25;6010801;29;20808;-53
2021/08/21 06:29:04;;;;;;;4.90;4.50;;;;;;;18.00;64.23;101888.41;6010375;29;20230;-56
2021/08/21 06:32:26;;;;;;;4.90;4.50;;;;;;;18.01;64.04;101882.22;6017135;29;20238;-56
2021/08/21 06:35:47;;;;;;;6.87;6.23;;;;;;;18.21;64.08;101881.78;6020235;29;20235;-53
2021/08/21 06:39:08;;;;;;;7.47;6.53;;;;;;;18.36;63.61;101888.41;6014618;29;20231;-56
2021/08/21 06:42:29;;;;;;;6.87;5.07;;;;;;;17.44;66.14;101892.22;6024449;29;20231;-55
2021/08/21 06:46:07;;;;;;;9.90;9.07;;;;;;;18.09;64.00;101888.22;6014718;29;20238;-52
2021/08/21 06:49:29;;;;;;;5.90;5.07;;;;;;;17.86;64.46;101900.13;6017240;29;20242;-52
2021/08/21 06:52:51;;;;;;;4.17;3.70;;;;;;;17.55;65.51;101904.31;6015881;29;20320;-53
2021/08/21 06:56:15;;;;;;;5.73;5.13;;;;;;;17.99;64.56;101905.13;6019602;29;20243;-56
2021/08/21 06:59:35;;;;;;;4.57;4.10;;;;;;;18.23;63.51;101907.19;6018922;29;20579;-54
2021/08/21 07:02:57;;;;;;;4.60;4.10;;;;;;;18.54;62.83;101901.16;6019685;29;20234;-51
2021/08/21 07:06:19;;;;;;;3.90;3.58;;;;;;;18.70;62.27;101902.50;6016696;29;20231;-51
2021/08/21 07:09:40;;;;;;;4.30;3.83;;;;;;;18.85;61.88;101900.41;6016444;29;20242;-55
2021/08/21 07:13:01;;;;;;;3.83;3.53;;;;;;;18.20;64.03;101898.47;6015953;29;20253;-54
2021/08/21 07:16:22;;;;;;;4.13;3.70;;;;;;;18.70;62.83;101894.59;6017413;29;20242;-55
2021/08/21 07:19:43;;;;;;;8.23;4.35;;;;;;;18.70;62.35;101896.34;6014290;29;20239;-55
2021/08/21 07:23:05;;;;;;;4.70;4.30;;;;;;;18.43;63.10;101900.56;6005887;29;22369;-54
2021/08/21 07:26:26;;;;;;;5.18;4.25;;;;;;;18.79;62.29;101898.75;6010777;29;20238;-53
2021/08/21 07:29:46;;;;;;;4.30;3.90;;;;;;;18.70;62.73;101910.41;6014493;29;20239;-52
2021/08/21 07:33:07;;;;;;;3.42;2.83;;;;;;;18.28;63.25;101904.44;6004429;29;20242;-56
2021/08/21 07:36:28;;;;;;;4.40;3.47;;;;;;;18.54;62.59;101910.84;6005981;29;20235;-54
2021/08/21 07:39:50;;;;;;;4.03;3.63;;;;;;;18.10;64.25;101913.66;6010952;29;20644;-55
2021/08/21 07:43:11;;;;;;;6.85;3.38;;;;;;;18.56;62.79;101907.28;6015901;29;20349;-48
2021/08/21 07:46:33;;;;;;;3.53;3.10;;;;;;;19.38;60.44;101916.53;6022313;29;20312;-50
2021/08/21 07:49:54;;;;;;;3.80;3.33;;;;;;;18.95;60.48;101915.09;6011594;29;20239;-56
2021/08/21 07:53:14;;;;;;;3.80;2.80;;;;;;;18.93;60.23;101918.69;6016726;29;20241;-54
2021/08/21 07:56:37;;;;;;;2.85;2.63;;;;;;;19.29;59.37;101922.09;6009621;29;20614;-51
2021/08/21 07:59:58;;;;;;;4.03;2.70;;;;;;;19.84;58.06;101917.00;6017424;29;20246;-55
2021/08/21 08:03:19;;;;;;;3.47;3.03;;;;;;;20.14;57.64;101919.59;6025263;29;20242;-52
2021/08/21 08:06:40;;;;;;;2.88;2.67;;;;;;;19.69;57.89;101915.66;6020442;29;20229;-55
2021/08/21 08:10:01;;;;;;;3.15;2.47;;;;;;;19.30;58.95;101912.41;6017087;29;20233;-57
2021/08/21 08:13:23;;;;;;;2.97;2.00;;;;;;;19.94;57.71;101914.94;6010399;29;20239;-56
2021/08/21 08:16:44;;;;;;;4.13;2.20;;;;;;;20.32;55.57;101913.75;6013315;29;20234;-55
2021/08/21 08:20:06;;;;;;;2.08;1.95;;;;;;;19.52;56.66;101915.28;6007868;29;20246;-54
2021/08/21 08:23:27;;;;;;;2.35;2.15;;;;;;;19.54;56.88;101914.34;6006893;29;20249;-55
2021/08/21 08:26:48;;;;;;;2.58;2.17;;;;;;;20.13;55.98;101916.09;6023724;29;20222;-55
2021/08/21 08:30:12;;;;;;;5.03;2.10;;;;;;;20.11;54.95;101909.13;6024910;29;20241;-54
2021/08/21 08:33:34;;;;;;;2.30;1.92;;;;;;;19.65;56.16;101916.66;5985352;29;20367;-53
2021/08/21 08:36:55;;;;;;;3.35;2.38;;;;;;;20.19;54.76;101917.69;5999261;29;20715;-53
2021/08/21 08:40:16;;;;;;;2.60;1.70;;;;;;;20.84;54.06;101917.31;5995502;29;21368;-55
2021/08/21 08:43:38;;;;;;;2.38;1.80;;;;;;;20.39;54.08;101919.69;6000629;29;20529;-55
2021/08/21 08:47:01;;;;;;;3.05;1.63;;;;;;;19.98;54.11;101913.94;6007316;29;20238;-52
2021/08/21 08:50:22;;;;;;;2.13;1.80;;;;;;;19.93;54.96;101922.03;5999407;29;20242;-52
2021/08/21 08:53:43;;;;;;;2.00;1.45;;;;;;;20.31;54.18;101927.00;6004682;29;20242;-54
2021/08/21 08:57:05;;;;;;;1.63;1.20;;;;;;;19.89;55.47;101932.72;6005140;29;20231;-52
2021/08/21 09:00:28;;;;;;;1.30;1.20;;;;;;;20.39;53.51;101931.13;6006166;29;20254;-52
2021/08/21 09:03:51;;;;;;;2.08;1.23;;;;;;;20.65;53.02;101932.09;6007441;29;20242;-53
2021/08/21 09:07:12;;;;;;;2.15;1.30;;;;;;;21.53;52.76;101936.97;6009930;29;20333;-56
2021/08/21 09:10:35;;;;;;;6.28;1.85;;;;;;;22.26;51.05;101927.13;6007500;29;22630;-54
2021/08/21 09:14:15;;;;;;;2.35;1.85;;;;;;;21.39;50.36;101926.84;6006762;29;20345;-54
2021/08/21 09:17:36;;;;;;;3.80;1.95;;;;;;;20.71;53.67;101931.88;6009359;29;20235;-56
2021/08/21 09:21:01;;;;;;;1.58;1.42;;;;;;;21.18;53.83;101925.84;6008892;29;20242;-57
2021/08/21 09:24:25;;;;;;;3.20;1.88;;;;;;;20.98;52.81;101931.84;6012539;29;20235;-56
2021/08/21 09:27:46;;;;;;;3.97;1.90;;;;;;;20.62;53.52;101926.88;6008554;29;20668;-53
2021/08/21 09:31:09;;;;;;;2.25;1.52;;;;;;;20.96;52.57;101926.59;6006419;29;20234;-54
2021/08/21 09:34:30;;;;;;;1.80;1.40;;;;;;;20.71;53.79;101928.38;6007186;29;20236;-54
2021/08/21 09:37:55;;;;;;;1.77;1.50;;;;;;;21.08;53.55;101929.75;6007365;29;26087;-52
2021/08/21 09:41:15;;;;;;;2.03;1.70;;;;;;;21.50;51.12;101924.69;6007339;29;20246;-57
2021/08/21 09:44:38;;;;;;;3.08;2.40;;;;;;;22.08;49.34;101916.28;6004676;29;20707;-55
2021/08/21 09:48:00;;;;;;;2.30;1.42;;;;;;;21.76;50.23;101931.66;6008618;29;20258;-53
2021/08/21 09:51:41;;;;;;;1.58;1.48;;;;;;;22.06;50.88;101919.91;6014457;29;20234;-53
2021/08/21 09:55:06;;;;;;;3.17;1.65;;;;;;;20.87;52.41;101931.34;6001481;29;20321;-54
2021/08/21 09:58:26;;;;;;;1.20;1.10;;;;;;;21.91;50.10;101926.69;6008334;29;20242;-56
2021/08/21 10:01:47;;;;;;;2.55;1.52;;;;;;;22.31;48.18;101918.00;6009616;29;20234;-52
2021/08/21 10:05:09;;;;;;;3.33;1.58;;;;;;;22.18;48.61;101916.78;6006431;29;20751;-53
2021/08/21 10:08:30;;;;;;;1.33;1.23;;;;;;;23.25;45.98;101908.72;6008905;29;20254;-56
2021/08/21 10:11:54;;;;;;;5.60;2.08;;;;;;;23.42;46.34;101912.38;6008932;29;20356;-53
2021/08/21 10:15:15;;;;;;;2.00;1.35;;;;;;;22.68;46.69;101907.66;6013665;29;20243;-54
2021/08/21 10:18:36;;;;;;;2.53;1.05;;;;;;;22.77;47.42;101913.44;6021025;29;20541;-54
2021/08/21 10:21:59;;;;;;;1.98;1.10;;;;;;;23.44;44.40;101905.22;6017314;29;20522;-52
2021/08/21 10:25:20;;;;;;;1.30;1.20;;;;;;;23.17;46.28;101902.91;6013260;29;20235;-53
2021/08/21 10:28:43;;;;;;;1.85;1.35;;;;;;;21.55;48.26;101908.63;6017994;29;20337;-55
2021/08/21 10:32:05;;;;;;;1.73;1.45;;;;;;;22.28;48.52;101901.38;5985349;29;20265;-53
2021/08/21 10:35:42;;;;;;;1.70;1.60;;;;;;;22.77;46.40;101905.47;6008740;29;20234;-53
2021/08/21 10:39:14;;;;;;;3.10;1.08;;;;;;;21.83;48.33;101900.47;6008219;29;20230;-54
2021/08/21 10:42:36;;;;;;;1.60;1.50;;;;;;;22.96;47.11;101907.34;6000016;29;20241;-56
2021/08/21 10:45:58;;;;;;;2.10;1.20;;;;;;;23.42;44.44;101894.69;6010970;29;20578;-55
2021/08/21 10:49:40;;;;;;;1.10;0.93;;;;;;;22.92;45.38;101905.75;6006020;29;20585;-53
2021/08/21 10:53:01;;;;;;;1.33;1.23;;;;;;;23.54;43.46;101901.22;6024831;29;20648;-51
2021/08/21 10:56:34;;;;;;;1.55;1.23;;;;;;;23.76;43.31;101903.72;6019426;29;20685;-52
2021/08/21 10:59:56;;;;;;;3.03;1.73;;;;;;;24.75;42.69;101908.63;6004779;29;20321;-53
2021/08/21 11:03:36;;;;;;;1.63;1.20;;;;;;;23.20;43.55;101894.78;6005667;29;20235;-54
2021/08/21 11:06:57;;;;;;;3.17;1.63;;;;;;;24.02;43.64;101897.19;6010236;29;20776;-55
2021/08/21 11:10:22;;;;;;;1.98;1.10;;;;;;;23.41;41.87;101902.72;6003232;29;20795;-56
2021/08/21 11:13:56;;;;;;;1.40;1.10;;;;;;;24.48;41.74;101902.88;6000712;29;20242;-57
2021/08/21 11:17:32;;;;;;;1.48;1.33;;;;;;;25.67;37.24;101894.00;6000948;29;23260;-53
2021/08/21 11:20:55;;;;;;;0.90;0.90;;;;;;;25.42;37.67;101892.69;6003291;29;20329;-53
2021/08/21 11:24:28;;;;;;;2.42;1.10;;;;;;;25.06;38.95;101898.16;6004933;29;20247;-56
2021/08/21 11:28:02;;;;;;;1.75;1.38;;;;;;;25.30;38.92;101888.91;6013325;29;20230;-52
2021/08/21 11:31:23;;;;;;;0.90;0.90;;;;;;;24.51;39.94;101892.09;6011607;29;20258;-56
2021/08/21 11:34:45;;;;;;;1.25;1.00;;;;;;;24.47;40.04;101895.84;6011735;29;20234;-56
2021/08/21 11:38:10;;;;;;;1.83;1.70;;;;;;;26.01;37.68;101882.31;6000924;29;20238;-53
2021/08/21 11:41:31;;;;;;;1.88;0.98;;;;;;;25.11;38.76;101889.00;5992295;29;20239;-55
2021/08/21 11:44:55;;;;;;;0.80;0.80;;;;;;;25.86;37.56;101884.03;6001038;29;20257;-53
2021/08/21 11:48:16;;;;;;;1.38;1.05;;;;;;;24.83;39.91;101886.91;5983453;29;20246;-51
2021/08/21 11:51:38;;;;;;;2.25;1.58;;;;;;;24.48;39.79;101884.22;5996182;29;20238;-57
2021/08/21 11:55:01;;;;;;;3.20;2.08;;;;;;;26.53;35.98;101881.06;5996686;29;20489;-52
2021/08/21 11:58:28;;;;;;;1.90;1.73;;;;;;;28.45;34.13;101874.25;5996819;29;20242;-52
2021/08/21 12:01:59;;;;;;;2.22;1.23;;;;;;;28.45;31.81;101871.56;6002758;29;20604;-55
2021/08/21 12:05:28;;;;;;;1.35;1.25;;;;;;;29.49;30.03;101869.72;6004286;29;20238;-56
2021/08/21 12:08:49;;;;;;;1.45;1.35;;;;;;;29.65;30.25;101868.50;5990924;29;20235;-53
2021/08/21 12:12:11;;;;;;;3.38;1.58;;;;;;;30.99;28.84;101863.75;5996125;29;20330;-56
2021/08/21 12:15:32;;;;;;;1.33;1.23;;;;;;;28.00;34.17;101868.34;6002070;29;20238;-54
2021/08/21 12:18:55;;;;;;;1.50;1.13;;;;;;;26.39;36.35;101863.19;6008098;29;20257;-55
2021/08/21 12:22:16;;;;;;;1.77;1.17;;;;;;;27.26;34.75;101864.22;6016699;29;21793;-52
2021/08/21 12:25:54;;;;;;;2.13;1.10;;;;;;;26.34;36.94;101857.25;6015584;29;20238;-49
2021/08/21 12:29:25;;;;;;;1.40;1.30;;;;;;;27.90;34.39;101859.22;6018590;29;20235;-52
2021/08/21 12:32:46;;;;;;;2.85;1.35;;;;;;;30.13;31.57;101858.78;6020062;29;20234;-54
2021/08/21 12:36:09;;;;;;;1.30;1.20;;;;;;;27.57;34.20;101854.19;6010476;29;20267;-57
2021/08/21 12:39:30;;;;;;;1.55;1.45;;;;;;;26.15;36.02;101857.47;6012564;29;20333;-56
2021/08/21 12:43:02;;;;;;;2.50;1.20;;;;;;;25.37;38.55;101859.22;6013504;29;20235;-54
2021/08/21 12:46:25;;;;;;;2.53;1.55;;;;;;;27.24;36.03;101848.25;6014934;29;20807;-53
2021/08/21 12:49:47;;;;;;;1.33;1.23;;;;;;;29.47;33.09;101848.41;6012618;29;20239;-56
2021/08/21 12:53:09;;;;;;;2.55;1.60;;;;;;;28.26;32.79;101844.31;6016497;29;20243;-56
2021/08/21 12:56:30;;;;;;;0.98;0.93;;;;;;;26.97;35.97;101849.94;6015851;29;20234;-53
2021/08/21 13:00:05;;;;;;;1.48;1.27;;;;;;;26.85;36.40;101849.75;6026220;29;20318;-56
2021/08/21 13:03:27;;;;;;;1.48;1.30;;;;;;;30.05;31.60;101845.94;6021511;29;20239;-54
2021/08/21 13:07:00;;;;;;;1.83;0.90;;;;;;;29.18;31.84;101846.00;6017129;29;20246;-56
2021/08/21 13:10:23;;;;;;;1.75;1.25;;;;;;;28.32;33.22;101841.22;6020444;29;20558;-51
2021/08/21 13:13:44;;;;;;;1.23;1.13;;;;;;;27.47;33.45;101837.88;6023658;29;20230;-53
2021/08/21 13:17:05;;;;;;;0.93;0.90;;;;;;;27.20;33.87;101835.13;6017869;29;20239;-57
2021/08/21 13:20:27;;;;;;;1.75;1.60;;;;;;;30.28;30.09;101828.03;6017143;29;20330;-53
2021/08/21 13:23:48;;;;;;;1.60;1.20;;;;;;;31.73;26.23;101830.03;6014534;29;20235;-54
2021/08/21 13:27:09;;;;;;;0.85;0.85;;;;;;;32.66;24.98;101834.72;6013980;29;20246;-57
2021/08/21 13:30:30;;;;;;;1.13;1.13;;;;;;;32.27;26.09;101815.59;6020688;29;20238;-56
2021/08/21 13:33:51;;;;;;;1.80;1.70;;;;;;;32.99;25.10;101813.00;6009673;29;20238;-55
2021/08/21 13:37:14;;;;;;;2.97;1.23;;;;;;;32.75;24.77;101816.91;6023218;29;20779;-52
2021/08/21 13:40:34;;;;;;;3.00;2.80;;;;;;;32.10;26.32;101808.97;6020890;29;20268;-58
2021/08/21 13:43:55;;;;;;;2.67;2.17;;;;;;;31.97;25.95;101798.34;6017517;29;20246;-55
2021/08/21 13:47:16;;;;;;;1.50;1.40;;;;;;;31.61;26.56;101802.31;6016285;29;20338;-57
2021/08/21 13:50:37;;;;;;;1.08;0.98;;;;;;;30.26;27.71;101797.75;6022147;29;20246;-56
2021/08/21 13:54:00;;;;;;;1.75;1.65;;;;;;;29.65;29.10;101796.03;6018816;29;20669;-57
2021/08/21 13:57:21;;;;;;;3.85;2.80;;;;;;;29.84;29.40;101797.38;6023133;29;20334;-54
2021/08/21 14:00:42;;;;;;;0.95;0.95;;;;;;;30.78;28.04;101791.00;6018166;29;20238;-53
2021/08/21 14:04:03;;;;;;;2.05;1.52;;;;;;;29.72;28.22;101793.81;6022208;29;20540;-54
2021/08/21 14:07:24;;;;;;;1.42;1.10;;;;;;;30.41;28.34;101791.22;6019382;29;20273;-56
2021/08/21 14:10:46;;;;;;;1.70;1.60;;;;;;;30.85;27.47;101790.53;6014416;29;20234;-57
2021/08/21 14:14:09;;;;;;;1.65;1.52;;;;;;;28.96;30.20;101789.47;6029622;29;20234;-57
2021/08/21 14:17:30;;;;;;;1.45;1.25;;;;;;;29.09;30.60;101782.25;6010839;29;20238;-54
2021/08/21 14:20:51;;;;;;;1.70;1.60;;;;;;;27.93;32.42;101781.38;6017769;29;20254;-55
2021/08/21 14:24:12;;;;;;;1.20;1.10;;;;;;;27.28;34.47;101782.94;6015475;29;20234;-56
2021/08/21 14:27:34;;;;;;;4.90;4.50;;;;;;;28.12;34.20;101780.16;6014059;29;20706;-56
2021/08/21 14:30:56;;;;;;;1.67;1.58;;;;;;;27.20;33.79;101778.97;6021212;29;20258;-54
2021/08/21 14:34:16;;;;;;;2.60;1.65;;;;;;;26.44;35.26;101777.47;6002751;29;20234;-52
2021/08/21 14:37:38;;;;;;;6.72;6.22;;;;;;;27.32;34.68;101780.03;5998233;29;20245;-54
2021/08/21 14:40:59;;;;;;;4.63;4.20;;;;;;;26.56;36.78;101776.72;6002174;29;20226;-56
2021/08/21 14:44:21;;;;;;;3.25;2.95;;;;;;;26.49;37.24;101776.22;6004451;29;20243;-54
2021/08/21 14:47:42;;;;;;;1.85;1.52;;;;;;;25.78;38.69;101774.19;6002503;29;20226;-55
2021/08/21 14:51:06;;;;;;;1.95;1.20;;;;;;;25.54;38.80;101774.66;5997841;29;20243;-56
2021/08/21 14:54:27;;;;;;;9.05;8.30;;;;;;;26.10;37.97;101775.03;5984348;29;20242;-55
2021/08/21 14:57:49;;;;;;;2.08;1.80;;;;;;;25.70;38.52;101771.97;5992885;29;20238;-54
2021/08/21 15:01:11;;;;;;;9.20;8.18;;;;;;;27.18;38.15;101764.84;6000599;29;22816;-57
2021/08/21 15:04:31;;;;;;;1.67;1.55;;;;;;;26.33;38.05;101772.78;6004114;29;20322;-56
2021/08/21 15:07:52;;;;;;;1.65;1.55;;;;;;;25.99;38.92;101766.78;6002227;29;20598;-56
2021/08/21 15:11:13;;;;;;;1.45;1.35;;;;;;;26.40;38.75;101760.75;6003791;29;20325;-53
2021/08/21 15:14:34;;;;;;;1.83;1.60;;;;;;;27.11;37.89;101767.09;5999026;29;20238;-56
2021/08/21 15:17:57;;;;;;;5.68;4.90;;;;;;;27.00;37.06;101756.22;5998388;29;20270;-55
2021/08/21 15:21:18;;;;;;;1.75;1.58;;;;;;;26.55;37.41;101753.63;5996643;29;20562;-55
2021/08/21 15:24:42;;;;;;;4.63;2.20;;;;;;;27.68;37.53;101760.72;6002562;29;20501;-55
2021/08/21 15:28:04;;;;;;;1.70;1.60;;;;;;;27.80;36.13;101759.03;6007906;29;20242;-54
2021/08/21 15:31:25;;;;;;;2.03;1.83;;;;;;;28.00;36.32;101747.03;6003009;29;20333;-55
2021/08/21 15:34:48;;;;;;;3.65;2.50;;;;;;;27.96;36.95;101749.06;6005635;29;20580;-55
2021/08/21 15:38:09;;;;;;;4.28;2.88;;;;;;;27.44;35.51;101745.34;6011621;29;20258;-54
2021/08/21 15:41:29;;;;;;;3.00;2.70;;;;;;;27.07;37.99;101738.84;6005302;29;20241;-55
2021/08/21 15:44:50;;;;;;;5.50;5.00;;;;;;;27.28;37.01;101731.28;6006663;29;20325;-56